sensor_id;sensor_type;location;lat;lon;timestamp;P1;durP1;ratioP1;P2;durP2;ratioP2
12756;SDS011;31601;48.042;12.240;2023-04-25T00:00:45;7.00;;;1.80;;
12756;SDS011;31601;48.042;12.240;2023-04-25T00:03:12;1.77;;;1.60;;
12756;SDS011;31601;48.042;12.240;2023-04-25T00:05:38;2.37;;;1.80;;
12756;SDS011;31601;48.042;12.240;2023-04-25T00:08:06;3.57;;;1.90;;
12756;SDS011;31601;48.042;12.240;2023-04-25T00:10:33;2.93;;;1.63;;
12756;SDS011;31601;48.042;12.240;2023-04-25T00:12:59;2.37;;;1.60;;
12756;SDS011;31601;48.042;12.240;2023-04-25T00:15:27;3.03;;;2.07;;
12756;SDS011;31601;48.042;12.240;2023-04-25T00:17:55;9.10;;;2.53;;
12756;SDS011;31601;48.042;12.240;2023-04-25T00:20:21;5.23;;;2.60;;
12756;SDS011;31601;48.042;12.240;2023-04-25T00:22:48;4.90;;;2.50;;
12756;SDS011;31601;48.042;12.240;2023-04-25T00:25:16;4.53;;;1.77;;
12756;SDS011;31601;48.042;12.240;2023-04-25T00:27:42;1.77;;;1.50;;
12756;SDS011;31601;48.042;12.240;2023-04-25T00:30:09;4.20;;;1.80;;
12756;SDS011;31601;48.042;12.240;2023-04-25T00:32:36;3.60;;;1.70;;
12756;SDS011;31601;48.042;12.240;2023-04-25T00:35:03;3.03;;;1.80;;
12756;SDS011;31601;48.042;12.240;2023-04-25T00:37:30;8.90;;;2.20;;
12756;SDS011;31601;48.042;12.240;2023-04-25T00:39:57;4.10;;;1.70;;
12756;SDS011;31601;48.042;12.240;2023-04-25T00:42:25;4.73;;;1.97;;
12756;SDS011;31601;48.042;12.240;2023-04-25T00:44:52;4.53;;;1.60;;
12756;SDS011;31601;48.042;12.240;2023-04-25T00:47:19;4.20;;;1.90;;
12756;SDS011;31601;48.042;12.240;2023-04-25T00:49:45;2.70;;;1.80;;
12756;SDS011;31601;48.042;12.240;2023-04-25T00:52:12;1.97;;;1.83;;
12756;SDS011;31601;48.042;12.240;2023-04-25T00:54:39;7.67;;;2.27;;
12756;SDS011;31601;48.042;12.240;2023-04-25T00:57:05;3.30;;;2.27;;
12756;SDS011;31601;48.042;12.240;2023-04-25T00:59:33;2.97;;;1.63;;
12756;SDS011;31601;48.042;12.240;2023-04-25T01:02:02;2.87;;;2.40;;
12756;SDS011;31601;48.042;12.240;2023-04-25T01:04:30;4.70;;;2.20;;
12756;SDS011;31601;48.042;12.240;2023-04-25T01:06:57;4.17;;;1.80;;
12756;SDS011;31601;48.042;12.240;2023-04-25T01:09:24;2.43;;;1.97;;
12756;SDS011;31601;48.042;12.240;2023-04-25T01:11:50;5.43;;;2.40;;
12756;SDS011;31601;48.042;12.240;2023-04-25T01:14:17;3.17;;;1.40;;
12756;SDS011;31601;48.042;12.240;2023-04-25T01:16:45;3.23;;;1.80;;
12756;SDS011;31601;48.042;12.240;2023-04-25T01:19:11;4.00;;;2.40;;
12756;SDS011;31601;48.042;12.240;2023-04-25T01:21:44;2.53;;;2.20;;
12756;SDS011;31601;48.042;12.240;2023-04-25T01:24:11;3.27;;;2.43;;
12756;SDS011;31601;48.042;12.240;2023-04-25T01:26:38;2.17;;;1.90;;
12756;SDS011;31601;48.042;12.240;2023-04-25T01:29:09;3.93;;;2.20;;
12756;SDS011;31601;48.042;12.240;2023-04-25T01:31:36;4.73;;;2.13;;
12756;SDS011;31601;48.042;12.240;2023-04-25T01:34:02;5.27;;;2.20;;
12756;SDS011;31601;48.042;12.240;2023-04-25T01:36:29;4.50;;;2.60;;
12756;SDS011;31601;48.042;12.240;2023-04-25T01:38:57;2.57;;;1.90;;
12756;SDS011;31601;48.042;12.240;2023-04-25T01:41:24;4.50;;;2.10;;
12756;SDS011;31601;48.042;12.240;2023-04-25T01:43:50;2.33;;;2.13;;
12756;SDS011;31601;48.042;12.240;2023-04-25T01:46:17;6.37;;;2.30;;
12756;SDS011;31601;48.042;12.240;2023-04-25T01:48:43;3.00;;;2.13;;
12756;SDS011;31601;48.042;12.240;2023-04-25T01:51:10;2.33;;;1.67;;
12756;SDS011;31601;48.042;12.240;2023-04-25T01:53:37;2.10;;;1.90;;
12756;SDS011;31601;48.042;12.240;2023-04-25T01:56:06;2.10;;;2.00;;
12756;SDS011;31601;48.042;12.240;2023-04-25T01:58:33;2.50;;;2.07;;
12756;SDS011;31601;48.042;12.240;2023-04-25T02:00:59;2.40;;;2.00;;
12756;SDS011;31601;48.042;12.240;2023-04-25T02:03:26;6.77;;;2.03;;
12756;SDS011;31601;48.042;12.240;2023-04-25T02:05:52;3.13;;;2.30;;
12756;SDS011;31601;48.042;12.240;2023-04-25T02:08:18;2.20;;;1.80;;
12756;SDS011;31601;48.042;12.240;2023-04-25T02:10:45;2.43;;;1.90;;
12756;SDS011;31601;48.042;12.240;2023-04-25T02:13:13;4.60;;;1.97;;
12756;SDS011;31601;48.042;12.240;2023-04-25T02:15:39;2.63;;;2.23;;
12756;SDS011;31601;48.042;12.240;2023-04-25T02:18:06;2.80;;;2.20;;
12756;SDS011;31601;48.042;12.240;2023-04-25T02:20:32;12.03;;;2.80;;
12756;SDS011;31601;48.042;12.240;2023-04-25T02:22:59;2.73;;;2.37;;
12756;SDS011;31601;48.042;12.240;2023-04-25T02:25:25;4.50;;;2.70;;
12756;SDS011;31601;48.042;12.240;2023-04-25T02:27:52;3.47;;;2.80;;
12756;SDS011;31601;48.042;12.240;2023-04-25T02:30:20;6.87;;;3.00;;
12756;SDS011;31601;48.042;12.240;2023-04-25T02:32:46;3.63;;;2.90;;
12756;SDS011;31601;48.042;12.240;2023-04-25T02:35:13;3.10;;;2.80;;
12756;SDS011;31601;48.042;12.240;2023-04-25T02:37:39;4.00;;;3.00;;
12756;SDS011;31601;48.042;12.240;2023-04-25T02:40:07;2.90;;;2.60;;
12756;SDS011;31601;48.042;12.240;2023-04-25T02:42:34;4.67;;;2.83;;
12756;SDS011;31601;48.042;12.240;2023-04-25T02:45:01;7.23;;;3.07;;
12756;SDS011;31601;48.042;12.240;2023-04-25T02:47:28;3.43;;;2.90;;
12756;SDS011;31601;48.042;12.240;2023-04-25T02:49:55;6.70;;;2.60;;
12756;SDS011;31601;48.042;12.240;2023-04-25T02:52:21;3.50;;;3.00;;
12756;SDS011;31601;48.042;12.240;2023-04-25T02:54:48;3.13;;;2.53;;
12756;SDS011;31601;48.042;12.240;2023-04-25T02:57:14;6.67;;;2.60;;
12756;SDS011;31601;48.042;12.240;2023-04-25T02:59:40;11.20;;;3.13;;
12756;SDS011;31601;48.042;12.240;2023-04-25T03:02:07;4.10;;;2.57;;
12756;SDS011;31601;48.042;12.240;2023-04-25T03:04:35;7.07;;;2.90;;
12756;SDS011;31601;48.042;12.240;2023-04-25T03:07:01;2.87;;;2.50;;
12756;SDS011;31601;48.042;12.240;2023-04-25T03:09:28;9.30;;;2.80;;
12756;SDS011;31601;48.042;12.240;2023-04-25T03:11:55;2.80;;;1.93;;
12756;SDS011;31601;48.042;12.240;2023-04-25T03:14:21;6.43;;;2.63;;
12756;SDS011;31601;48.042;12.240;2023-04-25T03:16:47;5.50;;;2.10;;
12756;SDS011;31601;48.042;12.240;2023-04-25T03:19:14;3.43;;;2.10;;
12756;SDS011;31601;48.042;12.240;2023-04-25T03:21:43;2.83;;;2.20;;
12756;SDS011;31601;48.042;12.240;2023-04-25T03:24:10;3.57;;;2.50;;
12756;SDS011;31601;48.042;12.240;2023-04-25T03:26:36;2.57;;;2.37;;
12756;SDS011;31601;48.042;12.240;2023-04-25T03:29:03;5.93;;;2.30;;
12756;SDS011;31601;48.042;12.240;2023-04-25T03:31:30;3.57;;;2.60;;
12756;SDS011;31601;48.042;12.240;2023-04-25T03:33:56;3.50;;;2.90;;
12756;SDS011;31601;48.042;12.240;2023-04-25T03:36:23;5.60;;;3.17;;
12756;SDS011;31601;48.042;12.240;2023-04-25T03:38:51;4.47;;;3.73;;
12756;SDS011;31601;48.042;12.240;2023-04-25T03:41:17;5.90;;;5.10;;
12756;SDS011;31601;48.042;12.240;2023-04-25T03:43:43;4.93;;;4.43;;
12756;SDS011;31601;48.042;12.240;2023-04-25T03:46:10;6.17;;;4.07;;
12756;SDS011;31601;48.042;12.240;2023-04-25T03:48:36;4.63;;;3.70;;
12756;SDS011;31601;48.042;12.240;2023-04-25T03:51:03;8.13;;;4.00;;
12756;SDS011;31601;48.042;12.240;2023-04-25T03:53:29;6.57;;;3.73;;
12756;SDS011;31601;48.042;12.240;2023-04-25T03:55:57;10.67;;;3.50;;
12756;SDS011;31601;48.042;12.240;2023-04-25T03:58:23;8.70;;;3.80;;
12756;SDS011;31601;48.042;12.240;2023-04-25T04:00:50;8.80;;;3.43;;
12756;SDS011;31601;48.042;12.240;2023-04-25T04:03:16;11.70;;;3.90;;
12756;SDS011;31601;48.042;12.240;2023-04-25T04:05:43;5.63;;;2.73;;
12756;SDS011;31601;48.042;12.240;2023-04-25T04:08:10;3.97;;;2.80;;
12756;SDS011;31601;48.042;12.240;2023-04-25T04:10:36;7.57;;;3.33;;
12756;SDS011;31601;48.042;12.240;2023-04-25T04:13:04;3.73;;;3.27;;
12756;SDS011;31601;48.042;12.240;2023-04-25T04:15:30;6.30;;;3.07;;
12756;SDS011;31601;48.042;12.240;2023-04-25T04:20:39;5.47;;;3.10;;
12756;SDS011;31601;48.042;12.240;2023-04-25T04:23:08;6.03;;;2.40;;
12756;SDS011;31601;48.042;12.240;2023-04-25T04:25:36;2.83;;;1.90;;
12756;SDS011;31601;48.042;12.240;2023-04-25T04:28:04;3.50;;;2.20;;
12756;SDS011;31601;48.042;12.240;2023-04-25T04:30:31;4.27;;;1.90;;
12756;SDS011;31601;48.042;12.240;2023-04-25T04:33:01;3.27;;;1.80;;
12756;SDS011;31601;48.042;12.240;2023-04-25T04:35:28;3.27;;;1.50;;
12756;SDS011;31601;48.042;12.240;2023-04-25T04:37:55;3.83;;;1.70;;
12756;SDS011;31601;48.042;12.240;2023-04-25T04:40:21;4.70;;;2.10;;
12756;SDS011;31601;48.042;12.240;2023-04-25T04:42:47;4.40;;;1.77;;
12756;SDS011;31601;48.042;12.240;2023-04-25T04:45:15;4.27;;;1.73;;
12756;SDS011;31601;48.042;12.240;2023-04-25T04:47:43;3.63;;;2.70;;
12756;SDS011;31601;48.042;12.240;2023-04-25T04:50:11;5.17;;;2.90;;
12756;SDS011;31601;48.042;12.240;2023-04-25T04:52:37;4.37;;;3.57;;
12756;SDS011;31601;48.042;12.240;2023-04-25T04:55:05;4.60;;;3.07;;
12756;SDS011;31601;48.042;12.240;2023-04-25T04:57:33;7.57;;;3.30;;
12756;SDS011;31601;48.042;12.240;2023-04-25T05:00:00;7.33;;;3.50;;
12756;SDS011;31601;48.042;12.240;2023-04-25T05:02:29;6.33;;;2.83;;
12756;SDS011;31601;48.042;12.240;2023-04-25T05:04:55;5.67;;;3.77;;
12756;SDS011;31601;48.042;12.240;2023-04-25T05:07:22;3.50;;;3.20;;
12756;SDS011;31601;48.042;12.240;2023-04-25T05:09:48;6.53;;;3.23;;
12756;SDS011;31601;48.042;12.240;2023-04-25T05:12:15;3.93;;;2.60;;
12756;SDS011;31601;48.042;12.240;2023-04-25T05:14:41;5.33;;;2.30;;
12756;SDS011;31601;48.042;12.240;2023-04-25T05:17:08;2.43;;;2.10;;
12756;SDS011;31601;48.042;12.240;2023-04-25T05:19:35;2.50;;;1.57;;
12756;SDS011;31601;48.042;12.240;2023-04-25T05:22:02;3.70;;;2.00;;
12756;SDS011;31601;48.042;12.240;2023-04-25T05:24:28;5.63;;;2.30;;
12756;SDS011;31601;48.042;12.240;2023-04-25T05:26:55;3.67;;;1.60;;
12756;SDS011;31601;48.042;12.240;2023-04-25T05:29:21;1.87;;;1.33;;
12756;SDS011;31601;48.042;12.240;2023-04-25T05:31:48;3.90;;;1.97;;
12756;SDS011;31601;48.042;12.240;2023-04-25T05:34:14;2.20;;;1.47;;
12756;SDS011;31601;48.042;12.240;2023-04-25T05:36:43;2.13;;;1.30;;
12756;SDS011;31601;48.042;12.240;2023-04-25T05:39:13;3.00;;;1.57;;
12756;SDS011;31601;48.042;12.240;2023-04-25T05:41:39;4.97;;;1.70;;
12756;SDS011;31601;48.042;12.240;2023-04-25T05:44:06;4.13;;;2.23;;
12756;SDS011;31601;48.042;12.240;2023-04-25T05:46:32;3.00;;;2.00;;
12756;SDS011;31601;48.042;12.240;2023-04-25T05:48:59;4.00;;;1.97;;
12756;SDS011;31601;48.042;12.240;2023-04-25T05:51:25;5.20;;;1.97;;
12756;SDS011;31601;48.042;12.240;2023-04-25T05:53:53;5.90;;;2.33;;
12756;SDS011;31601;48.042;12.240;2023-04-25T05:56:20;2.97;;;1.73;;
12756;SDS011;31601;48.042;12.240;2023-04-25T05:58:47;2.63;;;1.83;;
12756;SDS011;31601;48.042;12.240;2023-04-25T06:01:13;3.97;;;1.90;;
12756;SDS011;31601;48.042;12.240;2023-04-25T06:03:40;3.80;;;1.90;;
12756;SDS011;31601;48.042;12.240;2023-04-25T06:06:07;3.37;;;1.87;;
12756;SDS011;31601;48.042;12.240;2023-04-25T06:08:34;4.07;;;1.90;;
12756;SDS011;31601;48.042;12.240;2023-04-25T06:11:02;3.47;;;1.80;;
12756;SDS011;31601;48.042;12.240;2023-04-25T06:13:28;2.00;;;1.60;;
12756;SDS011;31601;48.042;12.240;2023-04-25T06:15:55;5.67;;;2.43;;
12756;SDS011;31601;48.042;12.240;2023-04-25T06:18:21;2.90;;;1.80;;
12756;SDS011;31601;48.042;12.240;2023-04-25T06:20:47;1.97;;;1.30;;
12756;SDS011;31601;48.042;12.240;2023-04-25T06:23:14;6.63;;;1.90;;
12756;SDS011;31601;48.042;12.240;2023-04-25T06:25:40;3.20;;;1.80;;
12756;SDS011;31601;48.042;12.240;2023-04-25T06:28:08;2.17;;;1.60;;
12756;SDS011;31601;48.042;12.240;2023-04-25T06:30:34;3.23;;;1.70;;
12756;SDS011;31601;48.042;12.240;2023-04-25T06:33:01;1.33;;;1.23;;
12756;SDS011;31601;48.042;12.240;2023-04-25T06:35:27;3.67;;;1.40;;
12756;SDS011;31601;48.042;12.240;2023-04-25T06:37:53;2.00;;;1.53;;
12756;SDS011;31601;48.042;12.240;2023-04-25T06:40:20;2.67;;;1.37;;
12756;SDS011;31601;48.042;12.240;2023-04-25T06:42:46;2.93;;;1.53;;
12756;SDS011;31601;48.042;12.240;2023-04-25T06:45:14;3.67;;;1.60;;
12756;SDS011;31601;48.042;12.240;2023-04-25T06:47:41;3.37;;;1.50;;
12756;SDS011;31601;48.042;12.240;2023-04-25T06:50:08;3.70;;;1.67;;
12756;SDS011;31601;48.042;12.240;2023-04-25T06:52:35;3.97;;;1.93;;
12756;SDS011;31601;48.042;12.240;2023-04-25T06:55:02;5.80;;;2.00;;
12756;SDS011;31601;48.042;12.240;2023-04-25T06:57:30;4.13;;;1.50;;
12756;SDS011;31601;48.042;12.240;2023-04-25T06:59:56;9.60;;;1.70;;
12756;SDS011;31601;48.042;12.240;2023-04-25T07:02:24;9.03;;;1.73;;
12756;SDS011;31601;48.042;12.240;2023-04-25T07:04:51;3.43;;;2.03;;
12756;SDS011;31601;48.042;12.240;2023-04-25T07:07:17;4.33;;;1.53;;
12756;SDS011;31601;48.042;12.240;2023-04-25T07:09:43;3.10;;;1.77;;
12756;SDS011;31601;48.042;12.240;2023-04-25T07:12:10;6.30;;;1.63;;
12756;SDS011;31601;48.042;12.240;2023-04-25T07:14:36;6.17;;;1.90;;
12756;SDS011;31601;48.042;12.240;2023-04-25T07:17:03;4.53;;;1.33;;
12756;SDS011;31601;48.042;12.240;2023-04-25T07:19:32;2.63;;;1.50;;
12756;SDS011;31601;48.042;12.240;2023-04-25T07:21:59;2.07;;;1.40;;
12756;SDS011;31601;48.042;12.240;2023-04-25T07:24:26;7.10;;;1.70;;
12756;SDS011;31601;48.042;12.240;2023-04-25T07:26:52;4.47;;;1.47;;
12756;SDS011;31601;48.042;12.240;2023-04-25T07:29:18;5.30;;;1.80;;
12756;SDS011;31601;48.042;12.240;2023-04-25T07:31:45;14.20;;;1.80;;
12756;SDS011;31601;48.042;12.240;2023-04-25T07:34:11;3.90;;;1.40;;
12756;SDS011;31601;48.042;12.240;2023-04-25T07:36:39;2.03;;;1.57;;
12756;SDS011;31601;48.042;12.240;2023-04-25T07:39:06;6.50;;;1.97;;
12756;SDS011;31601;48.042;12.240;2023-04-25T07:41:34;7.10;;;1.63;;
12756;SDS011;31601;48.042;12.240;2023-04-25T07:44:00;6.23;;;1.50;;
12756;SDS011;31601;48.042;12.240;2023-04-25T07:46:27;3.00;;;1.57;;
12756;SDS011;31601;48.042;12.240;2023-04-25T07:48:53;2.60;;;1.50;;
12756;SDS011;31601;48.042;12.240;2023-04-25T07:51:20;3.33;;;1.53;;
12756;SDS011;31601;48.042;12.240;2023-04-25T07:53:48;4.73;;;1.90;;
12756;SDS011;31601;48.042;12.240;2023-04-25T07:56:14;3.70;;;1.50;;
12756;SDS011;31601;48.042;12.240;2023-04-25T07:58:41;2.10;;;1.70;;
12756;SDS011;31601;48.042;12.240;2023-04-25T08:01:07;1.90;;;1.40;;
12756;SDS011;31601;48.042;12.240;2023-04-25T08:03:34;3.10;;;1.67;;
12756;SDS011;31601;48.042;12.240;2023-04-25T08:06:00;1.23;;;1.03;;
12756;SDS011;31601;48.042;12.240;2023-04-25T08:08:26;2.67;;;1.30;;
12756;SDS011;31601;48.042;12.240;2023-04-25T08:10:54;2.90;;;1.57;;
12756;SDS011;31601;48.042;12.240;2023-04-25T08:13:21;2.83;;;1.40;;
12756;SDS011;31601;48.042;12.240;2023-04-25T08:15:47;2.10;;;1.50;;
12756;SDS011;31601;48.042;12.240;2023-04-25T08:18:14;3.10;;;1.17;;
12756;SDS011;31601;48.042;12.240;2023-04-25T08:20:40;3.13;;;1.57;;
12756;SDS011;31601;48.042;12.240;2023-04-25T08:23:07;3.70;;;1.50;;
12756;SDS011;31601;48.042;12.240;2023-04-25T08:25:33;2.70;;;1.37;;
12756;SDS011;31601;48.042;12.240;2023-04-25T08:28:01;5.67;;;1.63;;
12756;SDS011;31601;48.042;12.240;2023-04-25T08:30:28;4.73;;;1.50;;
12756;SDS011;31601;48.042;12.240;2023-04-25T08:32:54;2.53;;;1.30;;
12756;SDS011;31601;48.042;12.240;2023-04-25T08:35:21;3.30;;;1.67;;
12756;SDS011;31601;48.042;12.240;2023-04-25T08:37:47;2.77;;;1.43;;
12756;SDS011;31601;48.042;12.240;2023-04-25T08:40:15;2.97;;;1.70;;
12756;SDS011;31601;48.042;12.240;2023-04-25T08:42:42;3.73;;;1.43;;
12756;SDS011;31601;48.042;12.240;2023-04-25T08:45:10;4.13;;;1.60;;
12756;SDS011;31601;48.042;12.240;2023-04-25T08:47:37;3.87;;;1.83;;
12756;SDS011;31601;48.042;12.240;2023-04-25T08:50:04;1.57;;;1.30;;
12756;SDS011;31601;48.042;12.240;2023-04-25T08:52:34;3.90;;;2.33;;
12756;SDS011;31601;48.042;12.240;2023-04-25T08:55:02;3.50;;;1.70;;
12756;SDS011;31601;48.042;12.240;2023-04-25T08:57:30;2.90;;;1.73;;
12756;SDS011;31601;48.042;12.240;2023-04-25T08:59:57;2.83;;;1.97;;
12756;SDS011;31601;48.042;12.240;2023-04-25T09:02:25;2.83;;;1.77;;
12756;SDS011;31601;48.042;12.240;2023-04-25T09:04:52;3.53;;;1.50;;
12756;SDS011;31601;48.042;12.240;2023-04-25T09:07:21;3.30;;;1.60;;
12756;SDS011;31601;48.042;12.240;2023-04-25T09:09:47;2.70;;;1.50;;
12756;SDS011;31601;48.042;12.240;2023-04-25T09:12:13;2.17;;;1.40;;
12756;SDS011;31601;48.042;12.240;2023-04-25T09:14:40;4.20;;;1.40;;
12756;SDS011;31601;48.042;12.240;2023-04-25T09:17:07;10.10;;;1.60;;
12756;SDS011;31601;48.042;12.240;2023-04-25T09:19:35;2.83;;;1.40;;
12756;SDS011;31601;48.042;12.240;2023-04-25T09:22:04;1.80;;;1.30;;
12756;SDS011;31601;48.042;12.240;2023-04-25T09:24:32;3.10;;;1.70;;
12756;SDS011;31601;48.042;12.240;2023-04-25T09:26:59;4.03;;;1.37;;
12756;SDS011;31601;48.042;12.240;2023-04-25T09:29:29;2.83;;;1.40;;
12756;SDS011;31601;48.042;12.240;2023-04-25T09:32:16;2.97;;;1.23;;
12756;SDS011;31601;48.042;12.240;2023-04-25T09:34:45;4.23;;;1.37;;
12756;SDS011;31601;48.042;12.240;2023-04-25T09:37:17;3.67;;;1.30;;
12756;SDS011;31601;48.042;12.240;2023-04-25T09:39:45;3.70;;;1.30;;
12756;SDS011;31601;48.042;12.240;2023-04-25T09:42:12;2.20;;;1.40;;
12756;SDS011;31601;48.042;12.240;2023-04-25T09:44:41;3.63;;;1.60;;
12756;SDS011;31601;48.042;12.240;2023-04-25T09:47:09;4.13;;;1.63;;
12756;SDS011;31601;48.042;12.240;2023-04-25T09:49:38;2.40;;;1.10;;
12756;SDS011;31601;48.042;12.240;2023-04-25T09:52:08;2.50;;;1.20;;
12756;SDS011;31601;48.042;12.240;2023-04-25T09:54:35;2.77;;;1.30;;
12756;SDS011;31601;48.042;12.240;2023-04-25T09:57:03;2.30;;;1.40;;
12756;SDS011;31601;48.042;12.240;2023-04-25T09:59:38;3.63;;;1.33;;
12756;SDS011;31601;48.042;12.240;2023-04-25T10:02:08;3.53;;;1.57;;
12756;SDS011;31601;48.042;12.240;2023-04-25T10:04:36;4.17;;;1.60;;
12756;SDS011;31601;48.042;12.240;2023-04-25T10:07:04;2.50;;;1.50;;
12756;SDS011;31601;48.042;12.240;2023-04-25T10:09:33;2.70;;;1.13;;
12756;SDS011;31601;48.042;12.240;2023-04-25T10:12:04;2.03;;;1.30;;
12756;SDS011;31601;48.042;12.240;2023-04-25T10:14:32;2.73;;;1.30;;
12756;SDS011;31601;48.042;12.240;2023-04-25T10:16:59;3.13;;;1.60;;
12756;SDS011;31601;48.042;12.240;2023-04-25T10:19:26;4.87;;;1.43;;
12756;SDS011;31601;48.042;12.240;2023-04-25T10:21:56;3.63;;;1.70;;
12756;SDS011;31601;48.042;12.240;2023-04-25T10:24:29;1.93;;;1.40;;
12756;SDS011;31601;48.042;12.240;2023-04-25T10:26:57;3.00;;;1.30;;
12756;SDS011;31601;48.042;12.240;2023-04-25T10:29:24;2.20;;;1.20;;
12756;SDS011;31601;48.042;12.240;2023-04-25T10:31:51;3.13;;;1.97;;
12756;SDS011;31601;48.042;12.240;2023-04-25T10:34:18;6.67;;;3.23;;
12756;SDS011;31601;48.042;12.240;2023-04-25T10:36:48;3.93;;;1.60;;
12756;SDS011;31601;48.042;12.240;2023-04-25T10:39:21;2.33;;;1.60;;
12756;SDS011;31601;48.042;12.240;2023-04-25T10:41:52;4.07;;;1.40;;
12756;SDS011;31601;48.042;12.240;2023-04-25T10:44:21;8.13;;;1.73;;
12756;SDS011;31601;48.042;12.240;2023-04-25T10:46:47;4.97;;;1.57;;
12756;SDS011;31601;48.042;12.240;2023-04-25T10:49:28;2.97;;;1.50;;
12756;SDS011;31601;48.042;12.240;2023-04-25T10:52:15;2.57;;;1.67;;
12756;SDS011;31601;48.042;12.240;2023-04-25T10:54:52;2.60;;;1.90;;
12756;SDS011;31601;48.042;12.240;2023-04-25T10:57:28;2.57;;;1.60;;
12756;SDS011;31601;48.042;12.240;2023-04-25T11:00:02;3.03;;;1.40;;
12756;SDS011;31601;48.042;12.240;2023-04-25T11:02:36;5.53;;;1.87;;
12756;SDS011;31601;48.042;12.240;2023-04-25T11:05:03;2.90;;;1.47;;
12756;SDS011;31601;48.042;12.240;2023-04-25T11:07:33;6.97;;;1.67;;
12756;SDS011;31601;48.042;12.240;2023-04-25T11:10:03;2.27;;;1.60;;
12756;SDS011;31601;48.042;12.240;2023-04-25T11:12:31;2.47;;;1.60;;
12756;SDS011;31601;48.042;12.240;2023-04-25T11:14:58;3.00;;;1.40;;
12756;SDS011;31601;48.042;12.240;2023-04-25T11:17:27;3.23;;;1.60;;
12756;SDS011;31601;48.042;12.240;2023-04-25T11:19:54;3.00;;;1.60;;
12756;SDS011;31601;48.042;12.240;2023-04-25T11:22:21;2.13;;;1.50;;
12756;SDS011;31601;48.042;12.240;2023-04-25T11:24:48;2.70;;;1.30;;
12756;SDS011;31601;48.042;12.240;2023-04-25T11:27:15;3.97;;;1.47;;
12756;SDS011;31601;48.042;12.240;2023-04-25T11:29:42;2.80;;;1.70;;
12756;SDS011;31601;48.042;12.240;2023-04-25T11:32:08;8.10;;;1.93;;
12756;SDS011;31601;48.042;12.240;2023-04-25T11:34:36;4.47;;;2.53;;
12756;SDS011;31601;48.042;12.240;2023-04-25T11:37:03;4.10;;;1.60;;
12756;SDS011;31601;48.042;12.240;2023-04-25T11:39:30;2.67;;;1.60;;
12756;SDS011;31601;48.042;12.240;2023-04-25T11:41:57;5.90;;;2.33;;
12756;SDS011;31601;48.042;12.240;2023-04-25T11:44:24;3.60;;;2.03;;
12756;SDS011;31601;48.042;12.240;2023-04-25T11:46:50;7.37;;;2.30;;
12756;SDS011;31601;48.042;12.240;2023-04-25T11:49:16;2.88;;;1.88;;
12756;SDS011;31601;48.042;12.240;2023-04-25T11:51:44;2.25;;;1.33;;
12756;SDS011;31601;48.042;12.240;2023-04-25T11:54:12;3.43;;;1.70;;
12756;SDS011;31601;48.042;12.240;2023-04-25T11:56:40;5.43;;;1.10;;
12756;SDS011;31601;48.042;12.240;2023-04-25T11:59:07;2.43;;;0.90;;
12756;SDS011;31601;48.042;12.240;2023-04-25T12:01:34;3.73;;;1.10;;
12756;SDS011;31601;48.042;12.240;2023-04-25T12:04:12;2.67;;;0.90;;
12756;SDS011;31601;48.042;12.240;2023-04-25T12:06:39;2.33;;;1.10;;
12756;SDS011;31601;48.042;12.240;2023-04-25T12:09:09;2.90;;;1.17;;
12756;SDS011;31601;48.042;12.240;2023-04-25T12:11:42;2.17;;;1.47;;
12756;SDS011;31601;48.042;12.240;2023-04-25T12:14:09;3.60;;;1.53;;
12756;SDS011;31601;48.042;12.240;2023-04-25T12:16:42;4.13;;;1.80;;
12756;SDS011;31601;48.042;12.240;2023-04-25T12:19:09;3.63;;;2.13;;
12756;SDS011;31601;48.042;12.240;2023-04-25T12:21:36;4.20;;;1.87;;
12756;SDS011;31601;48.042;12.240;2023-04-25T12:24:10;3.73;;;2.10;;
12756;SDS011;31601;48.042;12.240;2023-04-25T12:26:45;3.70;;;1.70;;
12756;SDS011;31601;48.042;12.240;2023-04-25T12:29:17;2.30;;;1.60;;
12756;SDS011;31601;48.042;12.240;2023-04-25T12:31:44;1.53;;;1.43;;
12756;SDS011;31601;48.042;12.240;2023-04-25T12:34:11;2.43;;;1.67;;
12756;SDS011;31601;48.042;12.240;2023-04-25T12:36:37;3.33;;;1.73;;
12756;SDS011;31601;48.042;12.240;2023-04-25T12:39:04;2.90;;;1.93;;
12756;SDS011;31601;48.042;12.240;2023-04-25T12:41:33;2.07;;;1.70;;
12756;SDS011;31601;48.042;12.240;2023-04-25T12:43:59;2.43;;;1.90;;
12756;SDS011;31601;48.042;12.240;2023-04-25T12:46:25;2.70;;;1.90;;
12756;SDS011;31601;48.042;12.240;2023-04-25T12:48:52;2.50;;;1.97;;
12756;SDS011;31601;48.042;12.240;2023-04-25T12:51:19;2.80;;;2.30;;
12756;SDS011;31601;48.042;12.240;2023-04-25T12:53:45;2.80;;;2.47;;
12756;SDS011;31601;48.042;12.240;2023-04-25T12:56:12;2.97;;;2.17;;
12756;SDS011;31601;48.042;12.240;2023-04-25T12:58:40;1.60;;;1.50;;
12756;SDS011;31601;48.042;12.240;2023-04-25T13:01:09;1.80;;;1.30;;
12756;SDS011;31601;48.042;12.240;2023-04-25T13:03:37;1.43;;;1.30;;
12756;SDS011;31601;48.042;12.240;2023-04-25T13:06:03;2.83;;;1.30;;
12756;SDS011;31601;48.042;12.240;2023-04-25T13:08:30;2.77;;;1.60;;
12756;SDS011;31601;48.042;12.240;2023-04-25T13:10:56;3.00;;;1.30;;
12756;SDS011;31601;48.042;12.240;2023-04-25T13:13:23;2.77;;;1.33;;
12756;SDS011;31601;48.042;12.240;2023-04-25T13:15:53;2.00;;;1.37;;
12756;SDS011;31601;48.042;12.240;2023-04-25T13:18:19;2.67;;;1.00;;
12756;SDS011;31601;48.042;12.240;2023-04-25T13:20:46;3.53;;;1.30;;
12756;SDS011;31601;48.042;12.240;2023-04-25T13:23:12;1.83;;;1.40;;
12756;SDS011;31601;48.042;12.240;2023-04-25T13:25:39;2.10;;;1.30;;
12756;SDS011;31601;48.042;12.240;2023-04-25T13:28:05;2.37;;;1.40;;
12756;SDS011;31601;48.042;12.240;2023-04-25T13:30:31;1.47;;;1.10;;
12756;SDS011;31601;48.042;12.240;2023-04-25T13:32:59;2.00;;;1.10;;
12756;SDS011;31601;48.042;12.240;2023-04-25T13:35:28;1.37;;;1.10;;
12756;SDS011;31601;48.042;12.240;2023-04-25T13:37:55;1.30;;;1.20;;
12756;SDS011;31601;48.042;12.240;2023-04-25T13:40:21;1.70;;;1.33;;
12756;SDS011;31601;48.042;12.240;2023-04-25T13:42:47;1.57;;;1.20;;
12756;SDS011;31601;48.042;12.240;2023-04-25T13:45:14;1.30;;;1.20;;
12756;SDS011;31601;48.042;12.240;2023-04-25T13:47:41;2.73;;;1.10;;
12756;SDS011;31601;48.042;12.240;2023-04-25T13:50:09;1.30;;;1.17;;
12756;SDS011;31601;48.042;12.240;2023-04-25T13:52:36;1.43;;;1.10;;
12756;SDS011;31601;48.042;12.240;2023-04-25T13:55:02;3.47;;;1.63;;
12756;SDS011;31601;48.042;12.240;2023-04-25T13:57:31;1.57;;;1.17;;
12756;SDS011;31601;48.042;12.240;2023-04-25T13:59:58;1.40;;;1.00;;
12756;SDS011;31601;48.042;12.240;2023-04-25T14:02:29;2.80;;;1.30;;
12756;SDS011;31601;48.042;12.240;2023-04-25T14:04:56;2.37;;;1.57;;
12756;SDS011;31601;48.042;12.240;2023-04-25T14:07:23;1.50;;;1.30;;
12756;SDS011;31601;48.042;12.240;2023-04-25T14:09:50;1.93;;;1.30;;
12756;SDS011;31601;48.042;12.240;2023-04-25T14:12:17;1.03;;;0.93;;
12756;SDS011;31601;48.042;12.240;2023-04-25T14:14:43;2.07;;;1.30;;
12756;SDS011;31601;48.042;12.240;2023-04-25T14:17:10;1.20;;;1.10;;
12756;SDS011;31601;48.042;12.240;2023-04-25T14:19:36;1.57;;;1.10;;
12756;SDS011;31601;48.042;12.240;2023-04-25T14:22:08;2.87;;;1.33;;
12756;SDS011;31601;48.042;12.240;2023-04-25T14:24:36;1.10;;;1.00;;
12756;SDS011;31601;48.042;12.240;2023-04-25T14:27:03;2.60;;;1.30;;
12756;SDS011;31601;48.042;12.240;2023-04-25T14:29:29;1.40;;;1.10;;
12756;SDS011;31601;48.042;12.240;2023-04-25T14:31:56;2.13;;;1.43;;
12756;SDS011;31601;48.042;12.240;2023-04-25T14:34:24;1.37;;;1.20;;
12756;SDS011;31601;48.042;12.240;2023-04-25T14:36:51;1.67;;;1.30;;